Time;durP1;ratioP1;P1;durP2;ratioP2;P2;SDS_P1;SDS_P2;PMS_P1;PMS_P2;Temp;Humidity;BMP_temperature;BMP_pressure;BME280_temperature;BME280_humidity;BME280_pressure;Samples;Min_cycle;Max_cycle;Signal;HPM_P1;HPM_P2
2022/01/14 00:01:20;;;;;;;13.93;6.88;;;3.30;99.90;;;;;;5113096;27;20123;-79
2022/01/14 00:03:46;;;;;;;10.20;5.55;;;3.30;99.90;;;;;;5101971;27;20054;-80
2022/01/14 00:06:14;;;;;;;19.23;4.85;;;3.70;99.90;;;;;;5103001;27;20051;-80
2022/01/14 00:08:40;;;;;;;13.57;7.18;;;4.60;99.90;;;;;;5092750;27;20048;-79
2022/01/14 00:11:15;;;;;;;18.02;5.85;;;3.70;99.90;;;;;;5096359;27;20031;-79
2022/01/14 00:16:11;;;;;;;13.55;6.57;;;4.60;99.90;;;;;;5113970;27;20043;-79
2022/01/14 00:18:36;;;;;;;15.75;6.22;;;3.20;99.90;;;;;;5097129;27;20044;-80
2022/01/14 00:21:05;;;;;;;16.95;6.60;;;3.30;99.90;;;;;;5097052;27;20056;-79
2022/01/14 00:23:38;;;;;;;14.07;7.00;;;3.40;99.90;;;;;;5098285;27;20541;-80
2022/01/14 00:31:57;;;;;;;15.23;8.88;;;3.60;99.90;;;;;;5116730;27;20149;-79
2022/01/14 00:34:26;;;;;;;11.77;5.22;;;4.20;99.90;;;;;;5095386;27;20044;-79
2022/01/14 00:36:55;;;;;;;19.25;7.80;;;3.50;99.90;;;;;;5102718;27;20127;-79
2022/01/14 00:39:20;;;;;;;16.27;6.47;;;3.30;99.90;;;;;;5102503;27;20577;-80
2022/01/14 00:41:46;;;;;;;16.00;7.78;;;2.90;99.90;;;;;;5101018;27;20043;-79
2022/01/14 00:44:15;;;;;;;13.65;6.65;;;3.60;99.90;;;;;;5096406;27;20143;-79
2022/01/14 00:46:42;;;;;;;15.25;6.43;;;3.30;99.90;;;;;;5101445;27;20197;-79
2022/01/14 00:49:09;;;;;;;14.60;7.38;;;3.30;99.90;;;;;;5116462;27;20042;-80
2022/01/14 00:51:36;;;;;;;14.70;6.50;;;3.40;99.90;;;;;;5117824;27;20043;-79
2022/01/14 00:54:04;;;;;;;17.80;7.38;;;3.30;99.90;;;;;;5102063;27;20047;-80
2022/01/14 00:56:45;;;;;;;11.52;5.20;;;3.20;99.90;;;;;;5104033;27;20044;-80
2022/01/14 00:59:14;;;;;;;18.83;7.43;;;3.60;99.90;;;;;;5093835;27;21090;-79
2022/01/14 01:01:42;;;;;;;14.68;6.93;;;2.90;99.90;;;;;;5096329;27;20056;-79
2022/01/14 01:04:12;;;;;;;9.18;5.18;;;3.30;99.90;;;;;;5097368;27;20129;-79
2022/01/14 01:06:42;;;;;;;16.52;7.03;;;3.20;99.90;;;;;;5100474;27;20622;-79
2022/01/14 01:09:13;;;;;;;12.88;7.00;;;2.50;99.90;;;;;;5096167;27;20090;-80
2022/01/14 01:11:52;;;;;;;15.27;6.15;;;3.20;99.90;;;;;;5099182;27;20047;-80
2022/01/14 01:14:27;;;;;;;15.63;8.30;;;3.60;99.90;;;;;;5098038;27;20067;-80
2022/01/14 01:16:53;;;;;;;19.45;6.43;;;3.70;99.90;;;;;;5099967;27;20051;-80
2022/01/14 01:19:19;;;;;;;16.27;6.13;;;3.20;99.90;;;;;;5101218;27;20830;-80
2022/01/14 01:21:45;;;;;;;12.95;6.75;;;3.50;99.90;;;;;;5101442;27;20050;-79
2022/01/14 01:24:14;;;;;;;21.35;8.68;;;3.10;99.90;;;;;;5098304;27;20044;-80
2022/01/14 01:26:43;;;;;;;16.95;6.75;;;3.10;99.90;;;;;;5096142;27;20265;-79
2022/01/14 01:31:41;;;;;;;13.45;5.93;;;3.20;99.90;;;;;;5112837;27;20047;-80
2022/01/14 01:34:17;;;;;;;17.80;7.38;;;3.10;99.90;;;;;;5094746;27;20074;-79
2022/01/14 01:36:47;;;;;;;20.63;7.85;;;3.10;99.90;;;;;;5095329;27;20564;-79
2022/01/14 01:39:17;;;;;;;23.40;8.75;;;3.00;99.90;;;;;;5102659;27;20945;-80
2022/01/14 01:41:54;;;;;;;14.38;6.22;;;3.90;99.90;;;;;;5097656;27;20070;-79
2022/01/14 01:44:22;;;;;;;21.08;8.93;;;3.00;99.90;;;;;;5098308;27;21027;-80
2022/01/14 01:46:52;;;;;;;17.83;7.22;;;3.00;99.90;;;;;;5096628;27;20067;-79
2022/01/14 01:49:22;;;;;;;14.77;7.20;;;3.00;99.90;;;;;;5097884;27;20040;-79
2022/01/14 01:51:52;;;;;;;18.20;7.45;;;3.00;99.90;;;;;;5101887;27;20134;-80
2022/01/14 01:54:20;;;;;;;13.82;6.38;;;3.00;99.90;;;;;;5109686;27;20560;-80
2022/01/14 01:56:47;;;;;;;21.90;8.65;;;3.10;99.90;;;;;;5114218;27;20047;-80
2022/01/14 01:59:15;;;;;;;15.90;7.10;;;3.20;99.90;;;;;;5094884;27;20063;-80
2022/01/14 02:01:44;;;;;;;17.30;7.15;;;3.00;99.90;;;;;;5094414;27;20046;-79
2022/01/14 02:04:13;;;;;;;18.33;6.75;;;2.90;99.90;;;;;;5094585;27;20087;-80
2022/01/14 02:06:40;;;;;;;21.98;9.27;;;2.70;99.90;;;;;;5095786;27;20198;-80
2022/01/14 02:09:08;;;;;;;17.77;7.13;;;3.00;99.90;;;;;;5100567;27;20502;-79
2022/01/14 02:11:34;;;;;;;12.77;7.13;;;3.00;99.90;;;;;;5094232;27;20298;-79
2022/01/14 02:14:12;;;;;;;16.83;7.82;;;3.10;99.90;;;;;;5101476;27;20040;-80
2022/01/14 02:22:11;;;;;;;12.52;7.03;;;3.40;99.90;;;;;;5114600;27;20036;-79
2022/01/14 02:27:12;;;;;;;9.57;5.38;;;3.50;99.90;;;;;;5108070;27;20090;-79
2022/01/14 02:29:38;;;;;;;14.73;6.88;;;3.00;99.90;;;;;;5094665;27;20533;-79
2022/01/14 02:32:05;;;;;;;13.27;5.97;;;2.40;99.90;;;;;;5112951;27;20540;-79
2022/01/14 02:34:31;;;;;;;20.40;6.40;;;3.00;99.90;;;;;;5096973;27;20556;-79
2022/01/14 02:37:00;;;;;;;18.05;8.10;;;2.90;99.90;;;;;;5111109;27;20040;-79
2022/01/14 02:39:31;;;;;;;26.25;7.07;;;2.90;99.90;;;;;;5094387;27;20256;-79
2022/01/14 02:41:56;;;;;;;14.10;6.72;;;2.90;99.90;;;;;;5112962;27;20043;-80
2022/01/14 02:44:28;;;;;;;15.25;6.57;;;3.00;99.90;;;;;;5116077;27;20036;-80
2022/01/14 02:46:58;;;;;;;12.75;6.65;;;2.90;99.90;;;;;;5092713;27;20114;-80
2022/01/14 02:49:28;;;;;;;14.25;7.30;;;3.20;99.90;;;;;;5094499;27;20131;-80
2022/01/14 02:51:55;;;;;;;22.77;7.82;;;2.90;99.90;;;;;;5103148;27;20042;-79
2022/01/14 02:54:23;;;;;;;21.35;7.28;;;3.40;99.90;;;;;;5101138;27;20050;-80
2022/01/14 02:56:52;;;;;;;13.90;6.57;;;3.30;99.90;;;;;;5104100;27;20529;-80
2022/01/14 02:59:21;;;;;;;18.25;7.32;;;3.30;99.90;;;;;;5099014;27;20055;-80
2022/01/14 03:01:49;;;;;;;14.75;5.97;;;3.20;99.90;;;;;;5097523;27;20564;-80
2022/01/14 03:04:17;;;;;;;18.00;7.13;;;4.00;99.90;;;;;;5104066;27;20085;-80
2022/01/14 03:06:47;;;;;;;20.05;8.73;;;3.70;99.90;;;;;;5103370;27;20044;-80
2022/01/14 03:09:13;;;;;;;15.25;7.43;;;3.00;99.90;;;;;;5096562;27;20446;-80
2022/01/14 03:11:41;;;;;;;21.73;9.23;;;3.00;99.90;;;;;;5099966;27;20089;-80
2022/01/14 03:14:22;;;;;;;9.63;6.15;;;3.00;99.90;;;;;;5117869;27;20044;-80
2022/01/14 03:16:57;;;;;;;11.98;5.53;;;2.90;99.90;;;;;;5098640;27;20096;-79
2022/01/14 03:19:26;;;;;;;11.60;5.18;;;2.80;99.90;;;;;;5116292;27;20591;-80
2022/01/14 03:22:05;;;;;;;19.25;7.47;;;2.90;99.90;;;;;;5115150;27;20039;-79
2022/01/14 03:27:06;;;;;;;15.23;7.53;;;2.80;99.90;;;;;;5112594;27;20036;-79
2022/01/14 03:29:39;;;;;;;15.35;7.25;;;2.90;99.90;;;;;;5100338;27;20075;-80
2022/01/14 03:32:06;;;;;;;20.05;6.55;;;3.30;99.90;;;;;;5094971;27;20039;-79
2022/01/14 03:34:38;;;;;;;15.40;6.47;;;3.20;99.90;;;;;;5093439;27;20039;-80
2022/01/14 03:37:06;;;;;;;;;;;3.80;99.90;;;;;;5104398;27;20370;-79
2022/01/14 03:39:32;;;;;;;11.57;5.07;;;2.90;99.90;;;;;;5100008;27;19970;-80
2022/01/14 03:41:58;;;;;;;19.60;7.65;;;2.80;99.90;;;;;;5095228;27;20131;-79
2022/01/14 03:44:24;;;;;;;16.80;8.77;;;2.80;99.90;;;;;;5097510;27;20078;-79
2022/01/14 03:46:52;;;;;;;15.23;6.95;;;2.60;99.90;;;;;;5098037;27;20410;-80
2022/01/14 03:49:21;;;;;;;20.92;7.50;;;3.00;99.90;;;;;;5096167;27;20365;-80
2022/01/14 03:51:49;;;;;;;21.70;8.05;;;2.80;99.90;;;;;;5099517;27;20048;-79
2022/01/14 03:54:15;;;;;;;17.60;7.00;;;2.80;99.90;;;;;;5097989;27;20541;-79
2022/01/14 03:56:44;;;;;;;16.23;6.85;;;2.80;99.90;;;;;;5098801;27;20735;-80
2022/01/14 03:59:10;;;;;;;14.35;6.90;;;2.80;99.90;;;;;;5102548;27;20522;-80
2022/01/14 04:01:35;;;;;;;17.13;8.40;;;2.80;99.90;;;;;;5116025;27;20038;-79
2022/01/14 04:04:01;;;;;;;16.58;7.03;;;2.80;99.90;;;;;;5092049;27;20045;-79
2022/01/14 04:06:29;;;;;;;14.60;6.78;;;2.80;99.90;;;;;;5095548;27;20044;-79
2022/01/14 04:08:54;;;;;;;15.52;8.68;;;3.30;99.90;;;;;;5113657;27;20051;-79
2022/01/14 04:11:22;;;;;;;17.90;8.73;;;2.80;99.90;;;;;;5099341;27;20035;-79
2022/01/14 04:13:54;;;;;;;19.08;7.45;;;2.70;99.90;;;;;;5095361;27;20505;-79
2022/01/14 04:16:23;;;;;;;21.40;6.85;;;2.70;99.90;;;;;;5096020;27;20570;-79
2022/01/14 04:18:52;;;;;;;13.88;7.15;;;3.50;99.90;;;;;;5094684;27;20219;-79
2022/01/14 04:21:19;;;;;;;16.85;6.68;;;3.30;99.90;;;;;;5092116;27;20140;-79
2022/01/14 04:23:45;;;;;;;14.73;7.07;;;3.60;99.90;;;;;;5093658;27;20055;-78
2022/01/14 04:26:11;;;;;;;14.20;7.47;;;2.70;99.90;;;;;;5097460;27;20151;-79
2022/01/14 04:28:39;;;;;;;19.75;7.78;;;3.20;99.90;;;;;;5097162;27;20047;-79
2022/01/14 04:31:07;;;;;;;18.55;5.88;;;3.00;99.90;;;;;;5096830;27;20143;-78
2022/01/14 04:33:34;;;;;;;20.00;8.80;;;2.70;99.90;;;;;;5114692;27;20035;-79
2022/01/14 04:36:01;;;;;;;15.70;7.00;;;2.60;99.90;;;;;;5117741;27;20032;-79
2022/01/14 04:38:29;;;;;;;20.55;6.35;;;2.60;99.90;;;;;;5097871;27;20523;-79
2022/01/14 04:40:55;;;;;;;13.15;6.55;;;3.00;99.90;;;;;;5116880;27;20565;-79
2022/01/14 04:43:24;;;;;;;17.85;6.97;;;2.60;99.90;;;;;;5095674;27;20127;-79
2022/01/14 04:46:02;;;;;;;21.00;7.45;;;3.50;99.90;;;;;;5093239;27;20079;-78
2022/01/14 04:48:34;;;;;;;16.73;6.25;;;2.60;99.90;;;;;;5097017;27;20551;-79
2022/01/14 04:51:02;;;;;;;12.68;6.00;;;3.10;99.90;;;;;;5101862;27;20039;-79
2022/01/14 04:53:30;;;;;;;16.58;7.93;;;3.20;99.90;;;;;;5114856;27;20048;-79
2022/01/14 04:55:57;;;;;;;16.88;9.10;;;2.50;99.90;;;;;;5114473;27;20545;-79
2022/01/14 04:58:27;;;;;;;17.70;8.32;;;2.50;99.90;;;;;;5100189;27;20050;-79
2022/01/14 05:00:54;;;;;;;18.30;8.30;;;3.00;99.90;;;;;;5100142;27;20128;-79
2022/01/14 05:03:21;;;;;;;14.93;5.28;;;2.60;99.90;;;;;;5099586;27;20093;-79
2022/01/14 05:05:53;;;;;;;16.33;7.82;;;1.30;99.90;;;;;;5095515;27;20989;-79
2022/01/14 05:08:27;;;;;;;;;;;2.50;99.90;;;;;;5099748;27;20192;-80
2022/01/14 05:13:25;;;;;;;8.93;5.38;;;2.50;99.90;;;;;;5114523;27;20067;-79
2022/01/14 05:15:55;;;;;;;15.40;6.90;;;2.50;99.90;;;;;;5096712;27;20052;-79
2022/01/14 05:18:22;;;;;;;15.60;6.45;;;2.10;99.90;;;;;;5097884;27;20054;-80
2022/01/14 05:20:54;;;;;;;15.73;8.63;;;2.50;99.90;;;;;;5097976;27;20048;-79
2022/01/14 05:23:20;;;;;;;11.70;5.85;;;2.50;99.90;;;;;;5098812;27;20992;-79
2022/01/14 05:25:46;;;;;;;11.93;6.47;;;2.50;99.90;;;;;;5115281;27;20542;-79
2022/01/14 05:28:12;;;;;;;20.73;8.25;;;2.50;99.90;;;;;;5111812;27;20047;-79
2022/01/14 05:30:38;;;;;;;15.57;7.88;;;2.50;99.90;;;;;;5094976;27;20598;-78
2022/01/14 05:33:04;;;;;;;20.20;8.02;;;2.50;99.90;;;;;;5094624;27;20036;-78
2022/01/14 05:35:30;;;;;;;18.05;7.13;;;2.50;99.90;;;;;;5112395;27;20048;-78
2022/01/14 05:37:55;;;;;;;13.77;6.40;;;3.00;99.90;;;;;;5112636;27;20035;-78
2022/01/14 05:40:25;;;;;;;11.90;6.00;;;2.50;99.90;;;;;;5114491;27;20792;-78
2022/01/14 05:42:51;;;;;;;13.55;6.00;;;2.50;99.90;;;;;;5111798;27;20127;-78
2022/01/14 05:45:16;;;;;;;14.05;6.63;;;2.50;99.90;;;;;;5111245;27;20044;-78
2022/01/14 05:47:43;;;;;;;15.20;7.47;;;2.50;99.90;;;;;;5114083;27;20040;-78
2022/01/14 05:50:11;;;;;;;18.83;7.20;;;2.50;99.90;;;;;;5095819;27;20050;-78
2022/01/14 05:52:38;;;;;;;13.55;6.10;;;2.50;99.90;;;;;;5119110;27;20047;-78
2022/01/14 05:55:05;;;;;;;15.45;7.45;;;2.50;99.90;;;;;;5094422;27;20496;-78
2022/01/14 05:57:34;;;;;;;13.77;5.97;;;2.50;99.90;;;;;;5099272;27;20134;-78
2022/01/14 06:00:07;;;;;;;15.23;6.90;;;2.50;99.90;;;;;;5112151;27;20040;-78
2022/01/14 06:02:33;;;;;;;15.32;7.85;;;2.50;99.90;;;;;;5089412;27;20043;-78
2022/01/14 06:04:59;;;;;;;16.75;6.47;;;2.40;99.90;;;;;;5111360;27;20621;-78
2022/01/14 06:07:25;;;;;;;15.07;7.28;;;2.50;99.90;;;;;;5109042;27;20121;-78
2022/01/14 06:09:50;;;;;;;9.35;5.47;;;2.40;99.90;;;;;;5111742;27;20508;-77
2022/01/14 06:12:16;;;;;;;14.32;6.65;;;2.50;99.90;;;;;;5110793;27;20512;-78
2022/01/14 06:14:42;;;;;;;15.18;7.38;;;2.40;99.90;;;;;;5092696;27;20509;-78
2022/01/14 06:17:07;;;;;;;17.02;6.93;;;2.40;99.90;;;;;;5113083;27;20043;-78
2022/01/14 06:19:33;;;;;;;17.20;7.57;;;2.40;99.90;;;;;;5112610;27;20075;-76
2022/01/14 06:21:59;;;;;;;15.45;7.38;;;3.00;99.90;;;;;;5093081;27;20117;-77
2022/01/14 06:24:24;;;;;;;15.80;6.45;;;2.50;99.90;;;;;;5117400;27;20562;-79
2022/01/14 06:26:50;;;;;;;14.57;7.25;;;2.50;99.90;;;;;;5099068;27;20043;-78
2022/01/14 06:29:16;;;;;;;12.13;6.82;;;2.50;99.90;;;;;;5112746;27;20575;-78
2022/01/14 06:31:41;;;;;;;14.20;6.47;;;2.40;99.90;;;;;;5116402;27;20718;-78
2022/01/14 06:34:07;;;;;;;12.20;5.30;;;2.50;99.90;;;;;;5098233;27;20511;-76
2022/01/14 06:36:33;;;;;;;19.05;7.35;;;2.50;99.90;;;;;;5119711;27;20501;-78
2022/01/14 06:39:03;;;;;;;12.68;6.97;;;2.40;99.90;;;;;;5105262;27;20044;-80
2022/01/14 06:41:32;;;;;;;14.57;7.20;;;2.50;99.90;;;;;;5105479;27;20082;-80
2022/01/14 06:43:58;;;;;;;15.90;7.15;;;2.50;99.90;;;;;;5098915;27;20054;-79
2022/01/14 06:46:29;;;;;;;19.85;7.65;;;2.50;99.90;;;;;;5097813;27;20835;-80
2022/01/14 06:48:56;;;;;;;14.07;6.95;;;2.40;99.90;;;;;;5102930;27;20036;-79
2022/01/14 06:51:25;;;;;;;14.80;7.13;;;2.40;99.90;;;;;;5100548;27;20032;-79
2022/01/14 06:53:54;;;;;;;12.80;7.90;;;2.90;99.90;;;;;;5101010;27;20055;-79
2022/01/14 06:56:20;;;;;;;18.48;7.07;;;2.50;99.90;;;;;;5098309;27;20460;-79
2022/01/14 06:58:48;;;;;;;14.70;5.47;;;2.60;99.90;;;;;;5102895;27;20048;-79
2022/01/14 07:01:14;;;;;;;18.17;7.13;;;2.50;99.90;;;;;;5119377;27;20039;-79
2022/01/14 07:03:42;;;;;;;17.25;6.95;;;2.60;99.90;;;;;;5096235;27;20051;-79
2022/01/14 07:06:10;;;;;;;14.43;8.40;;;2.80;99.90;;;;;;5113266;27;20080;-78
2022/01/14 07:08:36;;;;;;;20.10;6.97;;;2.20;99.90;;;;;;5115481;27;20661;-78
2022/01/14 07:11:02;;;;;;;14.18;6.57;;;2.40;99.90;;;;;;5112914;27;20039;-75
2022/01/14 07:13:28;;;;;;;19.05;6.63;;;2.40;99.90;;;;;;5107517;27;20882;-75
2022/01/14 07:15:54;;;;;;;15.65;7.43;;;2.40;99.90;;;;;;5098908;27;20044;-75
2022/01/14 07:18:23;;;;;;;13.65;6.22;;;2.40;99.90;;;;;;5100779;27;20461;-75
2022/01/14 07:20:50;;;;;;;16.60;7.50;;;2.40;99.90;;;;;;5100052;27;20056;-75
2022/01/14 07:23:23;;;;;;;16.65;6.63;;;2.80;99.90;;;;;;5114637;27;20044;-80
2022/01/14 07:25:49;;;;;;;21.08;6.78;;;2.30;99.90;;;;;;5099603;27;20086;-75
2022/01/14 07:28:19;;;;;;;13.82;6.47;;;2.20;99.90;;;;;;5115512;27;20032;-75
2022/01/14 07:30:45;;;;;;;11.75;6.47;;;2.30;99.90;;;;;;5101337;27;20046;-75
2022/01/14 07:33:11;;;;;;;13.02;6.10;;;2.30;99.90;;;;;;5111614;27;20043;-75
2022/01/14 07:35:39;;;;;;;16.60;6.80;;;2.30;99.90;;;;;;5098466;27;20036;-76
2022/01/14 07:38:05;;;;;;;19.08;6.18;;;2.40;99.90;;;;;;5115255;27;20512;-77
2022/01/14 07:40:31;;;;;;;16.38;7.50;;;2.20;99.90;;;;;;5100175;27;20036;-81
2022/01/14 07:42:57;;;;;;;10.80;4.85;;;2.20;99.90;;;;;;5117445;27;20048;-82
2022/01/14 07:45:22;;;;;;;12.30;5.70;;;2.20;99.90;;;;;;5111252;27;20050;-81
2022/01/14 07:47:48;;;;;;;13.75;7.95;;;2.20;99.90;;;;;;5103315;27;20040;-81
2022/01/14 07:50:14;;;;;;;12.27;6.07;;;2.20;99.90;;;;;;5117398;27;20116;-81
2022/01/14 07:52:40;;;;;;;13.43;6.45;;;2.20;99.90;;;;;;5109736;27;20058;-81
2022/01/14 07:55:07;;;;;;;12.55;6.13;;;2.30;99.90;;;;;;5116250;27;20050;-81
2022/01/14 07:57:33;;;;;;;12.63;6.25;;;2.30;99.90;;;;;;5117634;27;20063;-81
2022/01/14 07:59:58;;;;;;;18.90;6.05;;;2.50;99.90;;;;;;5117983;27;20123;-81
2022/01/14 08:02:25;;;;;;;14.32;6.20;;;2.30;99.90;;;;;;5104628;27;20036;-81
2022/01/14 08:04:51;;;;;;;21.98;8.88;;;2.30;99.90;;;;;;5118728;27;20058;-81
2022/01/14 08:07:22;;;;;;;10.90;7.13;;;2.30;99.90;;;;;;5115531;27;20047;-81
2022/01/14 08:09:48;;;;;;;13.07;7.70;;;2.30;99.90;;;;;;5119683;27;20044;-81
2022/01/14 08:12:14;;;;;;;21.00;7.53;;;2.20;99.90;;;;;;5114846;27;20044;-81
2022/01/14 08:14:40;;;;;;;16.50;7.13;;;2.80;99.90;;;;;;5094939;27;20040;-81
2022/01/14 08:17:06;;;;;;;14.38;5.97;;;2.20;99.90;;;;;;5117054;27;20047;-81
2022/01/14 08:19:36;;;;;;;15.30;8.25;;;2.30;99.90;;;;;;5096166;27;20137;-81
2022/01/14 08:22:07;;;;;;;16.73;7.65;;;2.40;99.90;;;;;;5117317;27;20040;-81
2022/01/14 08:24:33;;;;;;;14.98;6.97;;;2.30;99.90;;;;;;5101596;27;20114;-81
2022/01/14 08:26:59;;;;;;;17.83;6.85;;;2.30;99.90;;;;;;5119209;27;20149;-81
2022/01/14 08:29:28;;;;;;;13.43;7.82;;;2.30;99.90;;;;;;5097804;27;20085;-80
2022/01/14 08:31:55;;;;;;;16.33;7.55;;;2.30;99.90;;;;;;5116571;27;20036;-81
2022/01/14 08:34:21;;;;;;;13.18;6.18;;;2.30;99.90;;;;;;5099146;27;20046;-81
2022/01/14 08:36:47;;;;;;;14.35;6.53;;;2.40;99.90;;;;;;5098074;27;20043;-81
2022/01/14 08:39:14;;;;;;;15.45;6.13;;;2.40;99.90;;;;;;5119493;27;20055;-80
2022/01/14 08:41:40;;;;;;;10.57;5.82;;;2.40;99.90;;;;;;5098913;27;20092;-81
2022/01/14 08:44:06;;;;;;;15.85;6.57;;;2.40;99.90;;;;;;5114662;27;20047;-81
2022/01/14 08:46:32;;;;;;;28.10;10.00;;;2.30;99.90;;;;;;5101077;27;20055;-81
2022/01/14 08:49:00;;;;;;;17.55;6.35;;;2.40;99.90;;;;;;5116175;27;20078;-81
2022/01/14 08:51:27;;;;;;;13.10;7.38;;;2.30;99.90;;;;;;5094890;27;20036;-81
2022/01/14 08:53:53;;;;;;;18.50;6.82;;;2.30;99.90;;;;;;5116423;27;20048;-81
2022/01/14 08:56:19;;;;;;;21.17;8.63;;;2.30;99.90;;;;;;5117917;27;20540;-81
2022/01/14 08:58:45;;;;;;;12.25;6.32;;;2.80;99.90;;;;;;5115867;27;20100;-81
2022/01/14 09:01:12;;;;;;;18.48;8.25;;;2.50;99.90;;;;;;5114919;27;20467;-81
2022/01/14 09:03:37;;;;;;;23.45;9.10;;;2.80;99.90;;;;;;5103113;27;20119;-81
2022/01/14 09:06:03;;;;;;;18.52;9.00;;;2.50;99.90;;;;;;5113493;27;20044;-81
2022/01/14 09:08:30;;;;;;;17.90;7.82;;;2.50;99.90;;;;;;5115568;27;20520;-81
2022/01/14 09:10:56;;;;;;;13.93;7.75;;;2.60;99.90;;;;;;5116586;27;20103;-80
2022/01/14 09:13:22;;;;;;;16.83;7.47;;;2.60;99.90;;;;;;5101694;27;20126;-80
2022/01/14 09:15:48;;;;;;;17.45;7.57;;;2.60;99.90;;;;;;5094792;27;20032;-80
2022/01/14 09:18:13;;;;;;;12.20;7.82;;;2.70;99.90;;;;;;5113282;27;20414;-81
2022/01/14 09:20:39;;;;;;;16.73;6.20;;;2.70;99.90;;;;;;5118661;27;20055;-80
2022/01/14 09:23:12;;;;;;;16.83;8.07;;;2.70;99.90;;;;;;5094872;27;20055;-81
2022/01/14 09:25:37;;;;;;;12.65;6.35;;;2.80;99.90;;;;;;5112788;27;20035;-81
2022/01/14 09:28:03;;;;;;;15.27;7.65;;;2.80;99.90;;;;;;5117939;27;20370;-81
2022/01/14 09:30:29;;;;;;;23.58;7.75;;;2.80;99.90;;;;;;5100807;27;20035;-80
2022/01/14 09:32:55;;;;;;;15.30;8.38;;;2.90;99.90;;;;;;5114907;27;20271;-81
2022/01/14 09:35:21;;;;;;;15.68;8.23;;;2.90;99.90;;;;;;5101899;27;20031;-81
2022/01/14 09:37:48;;;;;;;17.33;7.75;;;3.00;99.90;;;;;;5113546;27;20052;-80
2022/01/14 09:40:16;;;;;;;24.23;9.13;;;3.10;99.90;;;;;;5113488;27;20546;-81
2022/01/14 09:42:49;;;;;;;20.98;8.25;;;3.10;99.90;;;;;;5098943;27;20123;-81
2022/01/14 09:45:15;;;;;;;22.92;8.10;;;3.20;99.90;;;;;;5115098;27;20040;-81
2022/01/14 09:47:42;;;;;;;15.25;7.18;;;3.30;99.90;;;;;;5116647;27;20046;-81
2022/01/14 09:50:09;;;;;;;20.65;8.27;;;3.40;99.90;;;;;;5115119;27;20579;-81
2022/01/14 09:52:35;;;;;;;13.52;7.18;;;3.40;99.90;;;;;;5117140;27;20031;-81
2022/01/14 09:55:01;;;;;;;20.42;8.00;;;3.30;99.90;;;;;;5096335;27;20136;-81
2022/01/14 09:57:27;;;;;;;17.70;7.25;;;3.30;99.90;;;;;;5103091;27;20048;-81
2022/01/14 09:59:53;;;;;;;22.08;9.05;;;3.30;99.90;;;;;;5118669;27;20054;-80
2022/01/14 10:02:40;;;;;;;18.00;7.63;;;3.40;99.90;;;;;;5119697;27;20051;-81
2022/01/14 10:05:08;;;;;;;15.30;6.97;;;3.40;99.90;;;;;;5120388;27;20086;-81
2022/01/14 10:07:34;;;;;;;19.27;7.93;;;3.40;99.90;;;;;;5116662;27;20059;-81
2022/01/14 10:10:02;;;;;;;17.92;7.10;;;3.50;99.90;;;;;;5101477;27;20547;-80
2022/01/14 10:12:33;;;;;;;18.38;6.40;;;3.50;99.90;;;;;;5100549;27;20569;-81
2022/01/14 10:15:06;;;;;;;19.92;8.52;;;3.50;99.90;;;;;;5101489;27;20566;-81
2022/01/14 10:17:37;;;;;;;14.60;7.07;;;3.50;99.90;;;;;;5118572;27;20036;-81
2022/01/14 10:20:05;;;;;;;16.65;7.63;;;3.50;99.90;;;;;;5103054;27;20052;-81
2022/01/14 10:22:33;;;;;;;14.43;6.50;;;3.50;99.90;;;;;;5101473;27;20495;-81
2022/01/14 10:25:06;;;;;;;23.80;8.15;;;3.50;99.90;;;;;;5120935;27;20047;-81
2022/01/14 10:27:38;;;;;;;12.75;5.63;;;3.60;99.90;;;;;;5102020;27;20134;-81
2022/01/14 10:30:28;;;;;;;14.90;5.72;;;3.70;99.90;;;;;;5119717;27;21166;-81
2022/01/14 10:33:10;;;;;;;25.55;9.30;;;3.70;99.90;;;;;;5120640;27;20517;-80
2022/01/14 10:35:42;;;;;;;18.23;7.63;;;3.60;99.90;;;;;;5114903;27;20907;-81
2022/01/14 10:38:10;;;;;;;20.50;7.70;;;4.40;99.90;;;;;;5118192;27;20051;-81
2022/01/14 10:40:45;;;;;;;14.95;7.50;;;3.60;99.90;;;;;;5120255;27;20259;-82
2022/01/14 10:43:15;;;;;;;18.58;7.70;;;3.60;99.90;;;;;;5117948;27;21802;-81
2022/01/14 10:45:43;;;;;;;16.05;9.25;;;3.60;99.90;;;;;;5102756;27;20078;-81
2022/01/14 10:48:16;;;;;;;22.42;7.55;;;3.80;99.90;;;;;;5108695;27;20043;-81
2022/01/14 10:50:55;;;;;;;15.23;8.23;;;4.00;99.90;;;;;;5121176;27;20040;-81
2022/01/14 10:53:25;;;;;;;16.65;6.95;;;4.00;99.90;;;;;;5116340;27;20114;-81
2022/01/14 10:56:01;;;;;;;21.20;7.72;;;3.90;99.90;;;;;;5098822;27;20043;-79
2022/01/14 10:58:33;;;;;;;15.40;7.75;;;4.00;99.90;;;;;;5099886;27;20043;-79
2022/01/14 11:01:06;;;;;;;24.92;8.23;;;4.10;99.90;;;;;;5098516;27;20047;-78
2022/01/14 11:03:38;;;;;;;16.42;7.90;;;4.40;99.90;;;;;;5099167;27;20046;-79
2022/01/14 11:06:30;;;;;;;16.88;7.95;;;4.20;99.90;;;;;;5100739;27;20090;-78
2022/01/14 11:09:17;;;;;;;17.98;7.90;;;4.10;99.90;;;;;;5105583;27;20497;-79
2022/01/14 11:11:45;;;;;;;17.33;7.57;;;3.50;99.90;;;;;;5117120;27;20055;-78
2022/01/14 11:14:17;;;;;;;16.20;7.95;;;4.00;99.90;;;;;;5101667;27;20043;-79
2022/01/14 11:16:43;;;;;;;21.77;8.05;;;5.30;99.90;;;;;;5101331;27;20040;-78
2022/01/14 11:19:13;;;;;;;13.93;7.18;;;4.20;99.90;;;;;;5101897;27;20047;-79
2022/01/14 11:24:37;;;;;;;17.48;8.75;;;4.10;99.90;;;;;;5113123;27;20429;-78
2022/01/14 11:27:09;;;;;;;20.85;6.97;;;4.20;99.90;;;;;;5098501;27;20503;-78
2022/01/14 11:29:58;;;;;;;13.30;7.50;;;4.40;99.90;;;;;;5098296;27;20071;-78
2022/01/14 11:32:57;;;;;;;17.70;7.57;;;4.10;99.90;;;;;;5099011;27;20076;-78
2022/01/14 11:35:27;;;;;;;17.77;8.60;;;4.40;99.90;;;;;;5117030;27;20039;-79
2022/01/14 11:38:06;;;;;;;23.25;7.82;;;4.60;99.90;;;;;;5101405;27;20043;-78
2022/01/14 11:40:51;;;;;;;18.40;7.32;;;3.50;99.90;;;;;;5099516;27;20079;-78
2022/01/14 11:43:40;;;;;;;16.90;7.80;;;4.50;99.90;;;;;;5100212;27;20149;-78
2022/01/14 11:46:06;;;;;;;16.23;6.10;;;4.50;99.90;;;;;;5099550;27;20062;-78
2022/01/14 11:48:46;;;;;;;18.20;8.18;;;4.60;99.90;;;;;;5097816;27;20563;-78
2022/01/14 11:51:15;;;;;;;13.00;7.80;;;4.40;99.90;;;;;;5101417;27;20038;-78
2022/01/14 11:53:48;;;;;;;16.73;7.32;;;4.50;99.90;;;;;;5098903;27;20036;-79
2022/01/14 11:56:35;;;;;;;15.43;6.10;;;4.50;99.90;;;;;;5094099;27;20956;-79
2022/01/14 11:59:22;;;;;;;19.42;7.78;;;4.60;99.90;;;;;;5102394;27;20131;-79
2022/01/14 12:01:53;;;;;;;13.35;6.07;;;4.60;99.90;;;;;;5116118;27;20043;-79
2022/01/14 12:04:23;;;;;;;12.93;5.90;;;4.70;99.90;;;;;;5098695;27;20047;-79
2022/01/14 12:06:54;;;;;;;12.95;6.57;;;4.50;99.90;;;;;;5108624;27;20039;-79
2022/01/14 12:09:33;;;;;;;18.38;8.80;;;4.70;99.90;;;;;;5098278;27;20627;-80
2022/01/14 12:12:28;;;;;;;15.80;5.82;;;5.00;99.90;;;;;;5091660;27;20521;-79
2022/01/14 12:14:58;;;;;;;11.15;5.53;;;4.50;99.90;;;;;;5101548;27;20047;-78
2022/01/14 12:17:39;;;;;;;12.38;5.68;;;4.50;99.90;;;;;;5116195;27;20040;-79
2022/01/14 12:20:20;;;;;;;22.50;6.85;;;4.60;99.90;;;;;;5098473;27;20048;-79
2022/01/14 12:23:10;;;;;;;14.77;6.28;;;4.60;99.90;;;;;;5101560;27;20036;-79
2022/01/14 12:25:45;;;;;;;12.10;5.07;;;4.60;99.90;;;;;;5101089;27;20043;-79
2022/01/14 12:28:22;;;;;;;14.05;6.22;;;4.50;99.90;;;;;;5102888;27;20118;-78
2022/01/14 12:31:00;;;;;;;13.65;5.18;;;4.80;99.90;;;;;;5117355;27;20543;-79
2022/01/14 12:33:57;;;;;;;12.90;8.05;;;3.70;99.90;;;;;;5098619;27;20052;-79
2022/01/14 12:36:38;;;;;;;12.45;5.38;;;4.50;99.90;;;;;;5097228;27;20173;-79
2022/01/14 12:39:04;;;;;;;13.50;5.97;;;4.50;99.90;;;;;;5097453;27;20926;-79
2022/01/14 12:41:36;;;;;;;11.75;4.97;;;4.70;99.90;;;;;;5116664;27;20074;-79
2022/01/14 12:44:04;;;;;;;13.03;6.27;;;4.70;99.90;;;;;;5103027;27;20105;-79
2022/01/14 12:46:45;;;;;;;20.13;6.80;;;4.50;99.90;;;;;;5116458;27;20039;-79
2022/01/14 12:49:33;;;;;;;11.57;5.90;;;4.70;99.90;;;;;;5099754;27;20035;-78
2022/01/14 12:52:07;;;;;;;12.48;5.95;;;4.70;99.90;;;;;;5106923;27;20138;-78
2022/01/14 12:54:45;;;;;;;14.27;7.00;;;4.80;99.90;;;;;;5114672;27;20528;-78
2022/01/14 12:57:18;;;;;;;15.07;7.70;;;4.80;99.90;;;;;;5119423;27;20122;-79
2022/01/14 12:59:47;;;;;;;11.13;5.00;;;4.50;99.90;;;;;;5102135;27;21080;-81
2022/01/14 13:02:23;;;;;;;16.98;7.35;;;4.40;99.90;;;;;;5097561;27;20044;-79
2022/01/14 13:05:16;;;;;;;11.32;5.75;;;4.40;99.90;;;;;;5101670;27;20040;-78
2022/01/14 13:07:48;;;;;;;14.13;6.97;;;4.20;99.90;;;;;;5104730;27;20040;-78
2022/01/14 13:10:17;;;;;;;;;;;4.10;99.90;;;;;;5118072;27;20051;-79
2022/01/14 13:12:49;;;;;;;12.02;5.28;;;4.50;99.90;;;;;;5099156;27;19920;-78
2022/01/14 13:15:23;;;;;;;14.43;6.53;;;3.70;99.90;;;;;;5102294;27;20150;-78
2022/01/14 13:17:57;;;;;;;11.02;5.13;;;4.10;99.90;;;;;;5101127;27;20059;-79
2022/01/14 13:20:26;;;;;;;12.00;5.78;;;4.00;99.90;;;;;;5099457;27;20048;-78
2022/01/14 13:22:54;;;;;;;19.08;5.68;;;4.30;99.90;;;;;;5099625;27;20032;-78
2022/01/14 13:25:24;;;;;;;13.80;6.18;;;4.00;99.90;;;;;;5117546;27;20040;-78
2022/01/14 13:27:55;;;;;;;10.63;4.75;;;4.00;99.90;;;;;;5118829;27;20043;-78